Time,TemperatureF,DewpointF,PressureIn,WindDirection,WindDirectionDegrees,WindSpeedMPH,WindSpeedGustMPH,Humidity,HourlyPrecipIn,Conditions,Clouds,dailyrainin,SoftwareType,DateUTC
2013-07-08 00:00:00,75.0,73.5,30.15,NW,322,0.0,0.0,95,0.00,CLR,CLR,0.00,WeatherDisplay:10.37,2013-07-08 04:00:00,
2013-07-08 00:05:00,75.0,73.8,30.15,NW,323,0.0,0.0,96,0.00,CLR,CLR,0.00,WeatherDisplay:10.37,2013-07-08 04:05:00,
2013-07-08 00:10:00,75.0,73.8,30.15,NW,323,0.0,0.0,96,0.00,CLR,CLR,0.00,WeatherDisplay:10.37,2013-07-08 04:10:00,
2013-07-08 00:15:00,75.0,73.8,30.15,North,358,0.0,0.0,96,0.00,CLR,CLR,0.00,WeatherDisplay:10.37,2013-07-08 04:15:00,
2013-07-08 00:20:00,75.2,74.0,30.15,East,81,0.0,0.0,96,0.00,CLR,CLR,0.00,WeatherDisplay:10.37,2013-07-08 04:20:00,
2013-07-08 00:25:00,75.2,74.0,30.15,East,98,0.0,0.0,96,0.00,CLR,CLR,0.00,WeatherDisplay:10.37,2013-07-08 04:25:00,
2013-07-08 00:30:00,75.2,74.0,30.15,SSE,165,0.0,3.0,96,0.00,CLR,CLR,0.00,WeatherDisplay:10.37,2013-07-08 04:30:00,
2013-07-08 00:35:00,75.2,74.3,30.15,South,177,0.0,0.0,97,0.00,CLR,CLR,0.00,WeatherDisplay:10.37,2013-07-08 04:35:00,
2013-07-08 00:40:00,75.2,74.3,30.15,SSE,167,0.0,0.0,97,0.00,CLR,CLR,0.00,WeatherDisplay:10.37,2013-07-08 04:40:00,
2013-07-08 00:45:00,75.0,74.1,30.15,South,173,0.0,0.0,97,0.00,CLR,CLR,0.00,WeatherDisplay:10.37,2013-07-08 04:45:00,
2013-07-08 00:50:00,75.0,74.1,30.15,SSE,159,0.0,3.0,97,0.00,CLR,CLR,0.00,WeatherDisplay:10.37,2013-07-08 04:50:00,
2013-07-08 00:55:00,75.0,74.1,30.15,ESE,114,0.0,0.0,97,0.00,CLR,CLR,0.00,WeatherDisplay:10.37,2013-07-08 04:55:00,
2013-07-08 01:00:00,75.0,74.1,30.15,ESE,108,0.0,0.0,97,0.00,CLR,CLR,0.00,WeatherDisplay:10.37,2013-07-08 05:00:00,
2013-07-08 01:05:00,74.8,73.9,30.15,ESE,122,0.0,0.0,97,0.00,CLR,CLR,0.00,WeatherDisplay:10.37,2013-07-08 05:05:00,
2013-07-08 01:10:00,74.8,73.9,30.15,ESE,114,0.0,3.0,97,0.00,CLR,CLR,0.00,WeatherDisplay:10.37,2013-07-08 05:10:00,
2013-07-08 01:15:00,74.7,73.8,30.15,ESE,123,0.0,0.0,97,0.00,CLR,CLR,0.00,WeatherDisplay:10.37,2013-07-08 05:15:00,
2013-07-08 01:20:00,74.5,73.6,30.15,ESE,113,0.0,0.0,97,0.00,CLR,CLR,0.00,WeatherDisplay:10.37,2013-07-08 05:20:00,
2013-07-08 01:30:00,74.3,74.3,30.15,ESE,120,0.0,4.0,100,0.00,CLR,CLR,0.00,WeatherDisplay:10.37,2013-07-08 05:30:00,
2013-07-08 01:40:00,74.1,74.1,30.15,NNW,333,0.0,0.0,100,0.00,CLR,CLR,0.00,WeatherDisplay:10.37,2013-07-08 05:40:00,
2013-07-08 01:45:00,73.9,73.9,30.15,NNW,332,0.0,0.0,100,0.00,CLR,CLR,0.00,WeatherDisplay:10.37,2013-07-08 05:45:00,
2013-07-08 01:50:00,73.9,73.9,30.15,NNW,332,0.0,0.0,100,0.00,CLR,CLR,0.00,WeatherDisplay:10.37,2013-07-08 05:50:00,
2013-07-08 01:55:00,73.9,73.9,30.15,NNW,332,0.0,0.0,100,0.00,CLR,CLR,0.00,WeatherDisplay:10.37,2013-07-08 05:55:00,
2013-07-08 02:00:00,73.9,73.9,30.15,NNW,332,0.0,0.0,100,0.00,CLR,CLR,0.00,WeatherDisplay:10.37,2013-07-08 06:00:00,
2013-07-08 02:05:00,73.8,73.8,30.15,NNW,332,0.0,0.0,100,0.00,CLR,CLR,0.00,WeatherDisplay:10.37,2013-07-08 06:05:00,
2013-07-08 02:10:00,73.8,73.8,30.15,NNW,332,0.0,0.0,100,0.00,CLR,CLR,0.00,WeatherDisplay:10.37,2013-07-08 06:10:00,
2013-07-08 02:15:00,73.8,73.8,30.15,NNW,332,0.0,0.0,100,0.00,CLR,CLR,0.00,WeatherDisplay:10.37,2013-07-08 06:15:00,
2013-07-08 02:20:00,73.8,73.8,30.15,NNW,332,0.0,0.0,100,0.00,CLR,CLR,0.00,WeatherDisplay:10.37,2013-07-08 06:20:00,
2013-07-08 02:25:00,73.6,73.6,30.15,NNW,332,0.0,0.0,100,0.00,CLR,CLR,0.00,WeatherDisplay:10.37,2013-07-08 06:25:00,
2013-07-08 02:30:00,73.6,73.6,30.15,NNW,332,0.0,0.0,100,0.00,CLR,CLR,0.00,WeatherDisplay:10.37,2013-07-08 06:30:00,
2013-07-08 02:35:00,73.6,73.6,30.15,NNW,332,0.0,0.0,100,0.00,CLR,CLR,0.00,WeatherDisplay:10.37,2013-07-08 06:35:00,
2013-07-08 02:40:00,73.4,73.4,30.15,NNW,332,0.0,0.0,100,0.00,CLR,CLR,0.00,WeatherDisplay:10.37,2013-07-08 06:40:00,
2013-07-08 02:45:00,73.4,73.4,30.15,NNW,332,0.0,0.0,100,0.00,CLR,CLR,0.00,WeatherDisplay:10.37,2013-07-08 06:45:00,
2013-07-08 02:50:00,73.4,73.4,30.15,NNW,332,0.0,0.0,100,0.00,CLR,CLR,0.00,WeatherDisplay:10.37,2013-07-08 06:50:00,
2013-07-08 02:55:00,73.4,73.4,30.15,NNW,332,0.0,0.0,100,0.00,CLR,CLR,0.00,WeatherDisplay:10.37,2013-07-08 06:55:00,
2013-07-08 03:00:00,73.2,73.2,30.15,NNW,332,0.0,0.0,100,0.00,CLR,CLR,0.00,WeatherDisplay:10.37,2013-07-08 07:00:00,
2013-07-08 03:05:00,73.2,73.2,30.15,NNW,332,0.0,0.0,100,0.00,CLR,CLR,0.00,WeatherDisplay:10.37,2013-07-08 07:05:00,
2013-07-08 03:10:00,73.2,73.2,30.12,NNW,332,0.0,0.0,100,0.00,CLR,CLR,0.00,WeatherDisplay:10.37,2013-07-08 07:10:00,
2013-07-08 03:15:00,73.1,73.1,30.12,NNW,332,0.0,0.0,100,0.00,CLR,CLR,0.00,WeatherDisplay:10.37,2013-07-08 07:15:00,
2013-07-08 03:20:00,73.0,73.0,30.12,NNW,332,0.0,0.0,100,0.00,CLR,CLR,0.00,WeatherDisplay:10.37,2013-07-08 07:20:00,
2013-07-08 03:25:00,73.0,73.0,30.12,NNW,332,0.0,0.0,100,0.00,CLR,CLR,0.00,WeatherDisplay:10.37,2013-07-08 07:25:00,
2013-07-08 03:30:00,73.0,73.0,30.12,NNW,332,0.0,0.0,100,0.00,CLR,CLR,0.00,WeatherDisplay:10.37,2013-07-08 07:30:00,
2013-07-08 03:35:00,73.0,73.0,30.12,NNW,332,0.0,0.0,100,0.00,CLR,CLR,0.00,WeatherDisplay:10.37,2013-07-08 07:35:00,
2013-07-08 03:40:00,73.0,73.0,30.15,NNW,332,0.0,0.0,100,0.00,CLR,CLR,0.00,WeatherDisplay:10.37,2013-07-08 07:40:00,
2013-07-08 03:45:00,72.9,72.9,30.15,NNW,332,0.0,0.0,100,0.00,CLR,CLR,0.00,WeatherDisplay:10.37,2013-07-08 07:45:00,
2013-07-08 03:50:00,72.9,72.9,30.15,NNW,332,0.0,0.0,100,0.00,CLR,CLR,0.00,WeatherDisplay:10.37,2013-07-08 07:50:00,
2013-07-08 03:55:00,72.9,72.9,30.15,NNW,332,0.0,0.0,100,0.00,CLR,CLR,0.00,WeatherDisplay:10.37,2013-07-08 07:55:00,
2013-07-08 04:00:00,72.9,72.9,30.15,NNW,332,0.0,0.0,100,0.00,CLR,CLR,0.00,WeatherDisplay:10.37,2013-07-08 08:00:00,
2013-07-08 04:05:00,72.9,72.9,30.15,NNW,332,0.0,0.0,100,0.00,CLR,CLR,0.00,WeatherDisplay:10.37,2013-07-08 08:05:00,
2013-07-08 04:10:00,72.9,72.9,30.15,NNW,332,0.0,0.0,100,0.00,CLR,CLR,0.00,WeatherDisplay:10.37,2013-07-08 08:10:00,
2013-07-08 04:15:00,72.9,72.9,30.15,NNW,332,0.0,0.0,100,0.00,CLR,CLR,0.00,WeatherDisplay:10.37,2013-07-08 08:15:00,
2013-07-08 04:20:00,72.9,72.9,30.15,NNW,332,0.0,0.0,100,0.00,CLR,CLR,0.00,WeatherDisplay:10.37,2013-07-08 08:20:00,
2013-07-08 04:25:00,72.9,72.9,30.12,NNW,332,0.0,0.0,100,0.00,CLR,CLR,0.00,WeatherDisplay:10.37,2013-07-08 08:25:00,
2013-07-08 04:30:00,73.0,73.0,30.12,NNW,332,0.0,0.0,100,0.00,CLR,CLR,0.00,WeatherDisplay:10.37,2013-07-08 08:30:00,
2013-07-08 04:40:00,73.0,73.0,30.12,NNW,332,0.0,0.0,100,0.00,CLR,CLR,0.00,WeatherDisplay:10.37,2013-07-08 08:40:00,
2013-07-08 04:45:00,73.0,73.0,30.12,NNW,332,0.0,0.0,100,0.00,CLR,CLR,0.00,WeatherDisplay:10.37,2013-07-08 08:45:00,
2013-07-08 04:50:00,73.0,73.0,30.12,NNW,332,0.0,0.0,100,0.00,CLR,CLR,0.00,WeatherDisplay:10.37,2013-07-08 08:50:00,
2013-07-08 04:55:00,73.0,73.0,30.15,NNW,332,0.0,0.0,100,0.00,CLR,CLR,0.00,WeatherDisplay:10.37,2013-07-08 08:55:00,
2013-07-08 05:00:00,73.0,73.0,30.15,NNW,332,0.0,0.0,100,0.00,CLR,CLR,0.00,WeatherDisplay:10.37,2013-07-08 09:00:00,
2013-07-08 05:05:00,73.0,73.0,30.15,NNW,332,0.0,0.0,100,0.00,CLR,CLR,0.00,WeatherDisplay:10.37,2013-07-08 09:05:00,
2013-07-08 05:10:00,73.0,73.0,30.12,NNW,332,0.0,0.0,100,0.00,CLR,CLR,0.00,WeatherDisplay:10.37,2013-07-08 09:10:00,
2013-07-08 05:15:00,73.0,73.0,30.12,NNW,332,0.0,0.0,100,0.00,CLR,CLR,0.00,WeatherDisplay:10.37,2013-07-08 09:15:00,
2013-07-08 05:20:00,73.0,73.0,30.12,NNW,332,0.0,0.0,100,0.00,CLR,CLR,0.00,WeatherDisplay:10.37,2013-07-08 09:20:00,
2013-07-08 05:30:00,73.0,73.0,30.15,NNW,332,0.0,0.0,100,0.00,CLR,CLR,0.00,WeatherDisplay:10.37,2013-07-08 09:30:00,
2013-07-08 05:35:00,73.0,73.0,30.15,NNW,332,0.0,0.0,100,0.00,CLR,CLR,0.00,WeatherDisplay:10.37,2013-07-08 09:35:00,
2013-07-08 05:40:00,73.2,73.2,30.15,NNW,332,0.0,0.0,100,0.00,CLR,CLR,0.00,WeatherDisplay:10.37,2013-07-08 09:40:00,
2013-07-08 05:45:00,73.2,73.2,30.15,NNW,332,0.0,0.0,100,0.00,CLR,CLR,0.00,WeatherDisplay:10.37,2013-07-08 09:45:00,
2013-07-08 05:50:00,73.2,73.2,30.15,NNW,332,0.0,0.0,100,0.00,CLR,CLR,0.00,WeatherDisplay:10.37,2013-07-08 09:50:00,
2013-07-08 05:55:00,73.4,73.4,30.15,NNW,332,0.0,0.0,100,0.00,CLR,CLR,0.00,WeatherDisplay:10.37,2013-07-08 09:55:00,
2013-07-08 06:00:00,73.6,73.6,30.15,NNW,332,0.0,0.0,100,0.00,CLR,CLR,0.00,WeatherDisplay:10.37,2013-07-08 10:00:00,
2013-07-08 06:05:00,73.6,73.6,30.15,NNW,332,0.0,0.0,100,0.00,CLR,CLR,0.00,WeatherDisplay:10.37,2013-07-08 10:05:00,
2013-07-08 06:10:00,73.6,73.6,30.12,NNW,332,0.0,0.0,100,0.00,CLR,CLR,0.00,WeatherDisplay:10.37,2013-07-08 10:10:00,
2013-07-08 06:15:00,73.4,73.4,30.12,NNW,332,0.0,0.0,100,0.00,CLR,CLR,0.00,WeatherDisplay:10.37,2013-07-08 10:15:00,
2013-07-08 06:20:00,73.4,73.4,30.12,NNW,332,0.0,0.0,100,0.00,CLR,CLR,0.00,WeatherDisplay:10.37,2013-07-08 10:20:00,
2013-07-08 06:25:00,73.4,73.4,30.15,NNW,333,0.0,0.0,100,0.00,CLR,CLR,0.00,WeatherDisplay:10.37,2013-07-08 10:25:00,
2013-07-08 06:30:00,73.4,73.4,30.15,NNW,333,0.0,0.0,100,0.00,CLR,CLR,0.00,WeatherDisplay:10.37,2013-07-08 10:30:00,
2013-07-08 06:35:00,73.6,73.6,30.15,NNW,333,0.0,0.0,100,0.00,CLR,CLR,0.00,WeatherDisplay:10.37,2013-07-08 10:35:00,
2013-07-08 06:40:00,73.6,73.6,30.15,NNW,332,0.0,0.0,100,0.00,CLR,CLR,0.00,WeatherDisplay:10.37,2013-07-08 10:40:00,
2013-07-08 06:45:00,73.6,73.6,30.15,NNW,333,0.0,0.0,100,0.00,CLR,CLR,0.00,WeatherDisplay:10.37,2013-07-08 10:45:00,
2013-07-08 06:50:00,73.8,73.8,30.15,NNW,333,0.0,0.0,100,0.00,CLR,CLR,0.00,WeatherDisplay:10.37,2013-07-08 10:50:00,
2013-07-08 06:55:00,73.8,73.8,30.15,NNW,332,0.0,0.0,100,0.00,CLR,CLR,0.00,WeatherDisplay:10.37,2013-07-08 10:55:00,
2013-07-08 07:00:00,73.9,73.9,30.15,NNW,332,0.0,0.0,100,0.00,CLR,CLR,0.00,WeatherDisplay:10.37,2013-07-08 11:00:00,
2013-07-08 07:05:00,73.9,73.9,30.15,NNW,332,0.0,0.0,100,0.00,CLR,CLR,0.00,WeatherDisplay:10.37,2013-07-08 11:05:00,
2013-07-08 07:10:00,74.1,74.1,30.15,NNW,332,0.0,0.0,100,0.00,CLR,CLR,0.00,WeatherDisplay:10.37,2013-07-08 11:10:00,
2013-07-08 07:15:00,74.1,74.1,30.15,NNW,332,0.0,0.0,100,0.00,CLR,CLR,0.00,WeatherDisplay:10.37,2013-07-08 11:15:00,
2013-07-08 07:20:00,74.2,74.2,30.15,North,354,0.0,0.0,100,0.00,CLR,CLR,0.00,WeatherDisplay:10.37,2013-07-08 11:20:00,
2013-07-08 07:25:00,74.3,74.3,30.15,NNE,13,0.0,0.0,100,0.00,CLR,CLR,0.00,WeatherDisplay:10.37,2013-07-08 11:25:00,
2013-07-08 07:30:00,74.3,74.3,30.15,NNE,17,0.0,0.0,100,0.00,CLR,CLR,0.00,WeatherDisplay:10.37,2013-07-08 11:30:00,
2013-07-08 07:35:00,74.5,74.5,30.15,NE,42,0.0,0.0,100,0.00,CLR,CLR,0.00,WeatherDisplay:10.37,2013-07-08 11:35:00,
2013-07-08 07:40:00,74.5,74.5,30.18,ENE,58,0.0,0.0,100,0.00,CLR,CLR,0.00,WeatherDisplay:10.37,2013-07-08 11:40:00,
2013-07-08 07:45:00,74.7,74.7,30.18,ENE,58,0.0,0.0,100,0.00,CLR,CLR,0.00,WeatherDisplay:10.37,2013-07-08 11:45:00,
2013-07-08 07:50:00,74.8,74.8,30.18,ENE,58,0.0,0.0,100,0.00,CLR,CLR,0.00,WeatherDisplay:10.37,2013-07-08 11:50:00,
2013-07-08 07:55:00,74.8,74.8,30.18,ENE,57,0.0,0.0,100,0.00,CLR,CLR,0.00,WeatherDisplay:10.37,2013-07-08 11:55:00,
2013-07-08 08:00:00,74.8,74.8,30.18,ENE,58,0.0,0.0,100,0.00,CLR,CLR,0.00,WeatherDisplay:10.37,2013-07-08 12:00:00,
2013-07-08 08:05:00,75.0,75.0,30.18,ENE,57,0.0,0.0,100,0.00,CLR,CLR,0.00,WeatherDisplay:10.37,2013-07-08 12:05:00,
2013-07-08 08:10:00,75.0,75.0,30.18,NE,56,0.0,0.0,100,0.00,CLR,CLR,0.00,WeatherDisplay:10.37,2013-07-08 12:10:00,
2013-07-08 08:15:00,75.2,75.2,30.18,NE,56,0.0,0.0,100,0.00,CLR,CLR,0.00,WeatherDisplay:10.37,2013-07-08 12:15:00,
2013-07-08 08:20:00,75.4,75.4,30.18,NE,49,0.0,0.0,100,0.00,CLR,CLR,0.00,WeatherDisplay:10.37,2013-07-08 12:20:00,
2013-07-08 08:25:00,75.6,75.6,30.18,NE,37,0.0,0.0,100,0.00,CLR,CLR,0.00,WeatherDisplay:10.37,2013-07-08 12:25:00,
2013-07-08 08:30:00,75.7,75.7,30.18,North,11,0.0,0.0,100,0.00,CLR,CLR,0.00,WeatherDisplay:10.37,2013-07-08 12:30:00,
2013-07-08 08:35:00,75.9,75.9,30.18,North,2,0.0,0.0,100,0.00,CLR,CLR,0.00,WeatherDisplay:10.37,2013-07-08 12:35:00,
2013-07-08 08:40:00,76.1,76.1,30.18,North,1,0.0,0.0,100,0.00,CLR,CLR,0.00,WeatherDisplay:10.37,2013-07-08 12:40:00,
2013-07-08 08:45:00,76.3,76.3,30.18,North,352,0.0,0.0,100,0.00,CLR,CLR,0.00,WeatherDisplay:10.37,2013-07-08 12:45:00,
2013-07-08 08:50:00,76.3,76.3,30.18,NNW,345,0.0,0.0,100,0.00,CLR,CLR,0.00,WeatherDisplay:10.37,2013-07-08 12:50:00,
2013-07-08 08:55:00,76.3,76.3,30.18,NNW,341,0.0,0.0,100,0.00,CLR,CLR,0.00,WeatherDisplay:10.37,2013-07-08 12:55:00,
2013-07-08 09:00:00,76.2,76.2,30.18,NNW,336,0.0,0.0,100,0.00,CLR,CLR,0.00,WeatherDisplay:10.37,2013-07-08 13:00:00,
2013-07-08 09:05:00,76.1,76.1,30.18,NNW,334,0.0,0.0,100,0.00,CLR,CLR,0.00,WeatherDisplay:10.37,2013-07-08 13:05:00,
2013-07-08 09:10:00,76.2,76.2,30.18,NNW,334,0.0,0.0,100,0.00,CLR,CLR,0.00,WeatherDisplay:10.37,2013-07-08 13:10:00,
2013-07-08 09:15:00,76.1,76.1,30.18,NNW,335,0.0,0.0,100,0.00,CLR,CLR,0.00,WeatherDisplay:10.37,2013-07-08 13:15:00,
2013-07-08 09:20:00,76.3,76.3,30.18,NNW,334,0.0,0.0,100,0.00,CLR,CLR,0.00,WeatherDisplay:10.37,2013-07-08 13:20:00,
2013-07-08 09:25:00,76.3,76.3,30.18,NNW,334,0.0,0.0,100,0.00,CLR,CLR,0.00,WeatherDisplay:10.37,2013-07-08 13:25:00,
2013-07-08 09:30:00,76.5,76.5,30.18,NNW,334,0.0,0.0,100,0.00,CLR,CLR,0.00,WeatherDisplay:10.37,2013-07-08 13:30:00,
2013-07-08 09:35:00,76.6,76.6,30.18,NNW,334,0.0,0.0,100,0.00,CLR,CLR,0.00,WeatherDisplay:10.37,2013-07-08 13:35:00,
2013-07-08 09:40:00,76.6,76.6,30.18,NNW,334,0.0,0.0,100,0.00,CLR,CLR,0.00,WeatherDisplay:10.37,2013-07-08 13:40:00,
2013-07-08 09:45:00,76.6,76.6,30.18,NNW,334,0.0,0.0,100,0.00,CLR,CLR,0.00,WeatherDisplay:10.37,2013-07-08 13:45:00,
2013-07-08 09:50:00,77.0,77.0,30.18,NNW,334,0.0,0.0,100,0.00,CLR,CLR,0.00,WeatherDisplay:10.37,2013-07-08 13:50:00,